HEAX/ALY METAR and TAF weather

Enter ICAO airport designator
Station Type Date Time Source
HEAX METAR 2018/10/22 16:00 UTC NOAA

HEAX 221600Z 33007KT CAVOK 27/19 Q1009 NOSIG


Station Type Date Time Source
HEAX Decoded METAR 2018/10/22 16:00 UTC NOAA

Alexandria / Nouzha, Egypt (HEAX) 31-12N 029-57E 7M
Oct 22, 2018 - 12:00 PM EDT / 2018.10.22 1600 UTC
Wind: from the NNW (330 degrees) at 8 MPH (7 KT):0
Visibility: greater than 7 mile(s):0
Temperature: 80 F (27 C)
Dew Point: 66 F (19 C)
Relative Humidity: 61%
Pressure (altimeter): 29.80 in. Hg (1009 hPa)
ob: HEAX 221600Z 33007KT CAVOK 27/19 Q1009 NOSIG
cycle: 16

Station Type Date Time Source
HEAX TAF 2018/10/22 18:24 UTC NOAA

TAF TAF HEAX 221700Z 2218/2324 35008KT 9999 FEW020
TEMPO 2300/2306 VRB03KT 4000 BR NSC


Example: see airport list